sensor_id;sensor_type;location;lat;lon;timestamp;temperature;humidity
65058;HTU21D;51644;51.068;5.860;2022-10-23T00:00:09;14.40;83.03
65058;HTU21D;51644;51.068;5.860;2022-10-23T00:01:16;14.39;83.07
65058;HTU21D;51644;51.068;5.860;2022-10-23T00:02:15;14.38;83.10
65058;HTU21D;51644;51.068;5.860;2022-10-23T00:03:13;14.38;83.09
65058;HTU21D;51644;51.068;5.860;2022-10-23T00:04:20;14.36;83.12
65058;HTU21D;51644;51.068;5.860;2022-10-23T00:05:20;14.35;83.13
65058;HTU21D;51644;51.068;5.860;2022-10-23T00:06:20;14.34;83.18
65058;HTU21D;51644;51.068;5.860;2022-10-23T00:07:19;14.30;83.20
65058;HTU21D;51644;51.068;5.860;2022-10-23T00:08:17;14.30;83.14
65058;HTU21D;51644;51.068;5.860;2022-10-23T00:09:19;14.29;83.10
65058;HTU21D;51644;51.068;5.860;2022-10-23T00:10:20;14.30;83.04
65058;HTU21D;51644;51.068;5.860;2022-10-23T00:11:22;14.34;83.02
65058;HTU21D;51644;51.068;5.860;2022-10-23T00:12:21;14.30;83.00
65058;HTU21D;51644;51.068;5.860;2022-10-23T00:13:19;14.29;82.95
65058;HTU21D;51644;51.068;5.860;2022-10-23T00:14:21;14.29;82.97
65058;HTU21D;51644;51.068;5.860;2022-10-23T00:15:24;14.27;82.97
65058;HTU21D;51644;51.068;5.860;2022-10-23T00:16:25;14.25;82.99
65058;HTU21D;51644;51.068;5.860;2022-10-23T00:17:24;14.24;82.97
65058;HTU21D;51644;51.068;5.860;2022-10-23T00:18:22;14.22;83.00
65058;HTU21D;51644;51.068;5.860;2022-10-23T00:19:21;14.21;83.08
65058;HTU21D;51644;51.068;5.860;2022-10-23T00:20:19;14.19;83.14
65058;HTU21D;51644;51.068;5.860;2022-10-23T00:21:19;14.18;83.21
65058;HTU21D;51644;51.068;5.860;2022-10-23T00:22:18;14.13;83.32
65058;HTU21D;51644;51.068;5.860;2022-10-23T00:23:16;14.14;83.39
65058;HTU21D;51644;51.068;5.860;2022-10-23T00:24:15;14.11;83.39
65058;HTU21D;51644;51.068;5.860;2022-10-23T00:25:13;14.13;83.38
65058;HTU21D;51644;51.068;5.860;2022-10-23T00:26:14;14.11;83.43
65058;HTU21D;51644;51.068;5.860;2022-10-23T00:27:13;14.10;83.47
65058;HTU21D;51644;51.068;5.860;2022-10-23T00:28:11;14.08;83.47
65058;HTU21D;51644;51.068;5.860;2022-10-23T00:29:10;14.08;83.45
65058;HTU21D;51644;51.068;5.860;2022-10-23T00:30:09;14.06;83.52
65058;HTU21D;51644;51.068;5.860;2022-10-23T00:31:09;14.06;83.52
65058;HTU21D;51644;51.068;5.860;2022-10-23T00:32:08;14.07;83.52
65058;HTU21D;51644;51.068;5.860;2022-10-23T00:33:06;14.06;83.45
65058;HTU21D;51644;51.068;5.860;2022-10-23T00:34:05;14.05;83.45
65058;HTU21D;51644;51.068;5.860;2022-10-23T00:35:06;14.05;83.45
65058;HTU21D;51644;51.068;5.860;2022-10-23T00:36:08;14.05;83.42
65058;HTU21D;51644;51.068;5.860;2022-10-23T00:37:07;14.03;83.43
65058;HTU21D;51644;51.068;5.860;2022-10-23T00:38:07;14.01;83.45
65058;HTU21D;51644;51.068;5.860;2022-10-23T00:39:05;14.01;83.51
65058;HTU21D;51644;51.068;5.860;2022-10-23T00:40:04;14.00;83.51
65058;HTU21D;51644;51.068;5.860;2022-10-23T00:41:05;14.00;83.56
65058;HTU21D;51644;51.068;5.860;2022-10-23T00:42:04;14.01;83.62
65058;HTU21D;51644;51.068;5.860;2022-10-23T00:43:03;14.00;83.65
65058;HTU21D;51644;51.068;5.860;2022-10-23T00:45:29;13.99;83.68
65058;HTU21D;51644;51.068;5.860;2022-10-23T00:46:31;13.98;83.74
65058;HTU21D;51644;51.068;5.860;2022-10-23T00:47:30;13.99;83.78
65058;HTU21D;51644;51.068;5.860;2022-10-23T00:48:28;13.98;83.79
65058;HTU21D;51644;51.068;5.860;2022-10-23T00:49:30;13.99;83.79
65058;HTU21D;51644;51.068;5.860;2022-10-23T00:50:31;14.00;83.77
65058;HTU21D;51644;51.068;5.860;2022-10-23T00:51:37;14.01;83.72
65058;HTU21D;51644;51.068;5.860;2022-10-23T00:52:50;14.01;83.71
65058;HTU21D;51644;51.068;5.860;2022-10-23T00:53:54;14.01;83.69
65058;HTU21D;51644;51.068;5.860;2022-10-23T00:54:54;14.03;83.70
65058;HTU21D;51644;51.068;5.860;2022-10-23T00:55:54;14.03;83.67
65058;HTU21D;51644;51.068;5.860;2022-10-23T00:56:59;14.04;83.65
65058;HTU21D;51644;51.068;5.860;2022-10-23T00:57:58;14.03;83.61
65058;HTU21D;51644;51.068;5.860;2022-10-23T00:58:57;14.01;83.58
65058;HTU21D;51644;51.068;5.860;2022-10-23T00:59:55;14.01;83.58
65058;HTU21D;51644;51.068;5.860;2022-10-23T01:00:55;14.04;83.56
65058;HTU21D;51644;51.068;5.860;2022-10-23T01:01:54;14.04;83.51
65058;HTU21D;51644;51.068;5.860;2022-10-23T01:02:54;14.05;83.45
65058;HTU21D;51644;51.068;5.860;2022-10-23T01:03:54;14.05;83.44
65058;HTU21D;51644;51.068;5.860;2022-10-23T01:04:53;14.06;83.42
65058;HTU21D;51644;51.068;5.860;2022-10-23T01:11:13;13.99;83.62
65058;HTU21D;51644;51.068;5.860;2022-10-23T01:12:46;13.97;83.69
65058;HTU21D;51644;51.068;5.860;2022-10-23T01:13:55;13.94;83.74
65058;HTU21D;51644;51.068;5.860;2022-10-23T01:16:04;13.93;83.79
65058;HTU21D;51644;51.068;5.860;2022-10-23T01:17:19;13.90;83.88
65058;HTU21D;51644;51.068;5.860;2022-10-23T01:18:26;13.86;83.91
65058;HTU21D;51644;51.068;5.860;2022-10-23T01:20:06;13.85;83.90
65058;HTU21D;51644;51.068;5.860;2022-10-23T01:21:16;13.85;83.91
65058;HTU21D;51644;51.068;5.860;2022-10-23T01:22:34;13.84;83.94
65058;HTU21D;51644;51.068;5.860;2022-10-23T01:27:55;13.80;84.18
65058;HTU21D;51644;51.068;5.860;2022-10-23T01:29:19;13.81;84.13
65058;HTU21D;51644;51.068;5.860;2022-10-23T01:30:22;13.81;84.13
65058;HTU21D;51644;51.068;5.860;2022-10-23T01:31:40;13.82;84.07
65058;HTU21D;51644;51.068;5.860;2022-10-23T01:33:56;13.85;83.95
65058;HTU21D;51644;51.068;5.860;2022-10-23T01:35:06;13.86;83.87
65058;HTU21D;51644;51.068;5.860;2022-10-23T01:36:14;13.86;83.83
65058;HTU21D;51644;51.068;5.860;2022-10-23T01:37:21;13.88;83.84
65058;HTU21D;51644;51.068;5.860;2022-10-23T01:38:36;13.89;83.74
65058;HTU21D;51644;51.068;5.860;2022-10-23T01:39:52;13.90;83.70
65058;HTU21D;51644;51.068;5.860;2022-10-23T01:41:02;13.91;83.66
65058;HTU21D;51644;51.068;5.860;2022-10-23T01:42:09;13.91;83.60
65058;HTU21D;51644;51.068;5.860;2022-10-23T01:43:24;13.91;83.57
65058;HTU21D;51644;51.068;5.860;2022-10-23T01:45:49;13.91;83.54
65058;HTU21D;51644;51.068;5.860;2022-10-23T01:46:53;13.92;83.49
65058;HTU21D;51644;51.068;5.860;2022-10-23T01:47:54;13.93;83.46
65058;HTU21D;51644;51.068;5.860;2022-10-23T01:48:57;13.93;83.45
65058;HTU21D;51644;51.068;5.860;2022-10-23T01:49:59;13.92;83.47
65058;HTU21D;51644;51.068;5.860;2022-10-23T01:51:05;13.92;83.45
65058;HTU21D;51644;51.068;5.860;2022-10-23T01:52:12;13.93;83.40
65058;HTU21D;51644;51.068;5.860;2022-10-23T01:53:12;13.93;83.40
65058;HTU21D;51644;51.068;5.860;2022-10-23T01:54:15;13.94;83.43
65058;HTU21D;51644;51.068;5.860;2022-10-23T01:55:16;13.93;83.40
65058;HTU21D;51644;51.068;5.860;2022-10-23T01:56:26;13.93;83.38
65058;HTU21D;51644;51.068;5.860;2022-10-23T01:57:30;13.93;83.45
65058;HTU21D;51644;51.068;5.860;2022-10-23T01:58:31;13.94;83.45
65058;HTU21D;51644;51.068;5.860;2022-10-23T01:59:39;13.95;83.42
65058;HTU21D;51644;51.068;5.860;2022-10-23T02:00:43;13.95;83.38
65058;HTU21D;51644;51.068;5.860;2022-10-23T02:01:45;13.96;83.36
65058;HTU21D;51644;51.068;5.860;2022-10-23T02:02:48;13.98;83.24
65058;HTU21D;51644;51.068;5.860;2022-10-23T02:03:49;14.00;83.17
65058;HTU21D;51644;51.068;5.860;2022-10-23T02:04:56;14.01;83.16
65058;HTU21D;51644;51.068;5.860;2022-10-23T02:05:56;14.01;83.08
65058;HTU21D;51644;51.068;5.860;2022-10-23T02:06:55;14.01;83.06
65058;HTU21D;51644;51.068;5.860;2022-10-23T02:07:55;14.04;83.11
65058;HTU21D;51644;51.068;5.860;2022-10-23T02:08:55;14.04;83.13
65058;HTU21D;51644;51.068;5.860;2022-10-23T02:09:54;14.04;83.11
65058;HTU21D;51644;51.068;5.860;2022-10-23T02:11:08;14.08;83.20
65058;HTU21D;51644;51.068;5.860;2022-10-23T02:12:13;14.07;83.12
65058;HTU21D;51644;51.068;5.860;2022-10-23T02:14:57;14.06;83.22
65058;HTU21D;51644;51.068;5.860;2022-10-23T02:16:15;14.09;83.23
65058;HTU21D;51644;51.068;5.860;2022-10-23T02:20:02;14.09;83.26
65058;HTU21D;51644;51.068;5.860;2022-10-23T02:21:13;14.08;83.26
65058;HTU21D;51644;51.068;5.860;2022-10-23T02:23:47;14.08;83.33
65058;HTU21D;51644;51.068;5.860;2022-10-23T02:24:55;14.08;83.32
65058;HTU21D;51644;51.068;5.860;2022-10-23T02:26:14;14.07;83.31
65058;HTU21D;51644;51.068;5.860;2022-10-23T02:27:26;14.08;83.28
65058;HTU21D;51644;51.068;5.860;2022-10-23T02:28:48;14.07;83.28
65058;HTU21D;51644;51.068;5.860;2022-10-23T02:30:03;14.08;83.23
65058;HTU21D;51644;51.068;5.860;2022-10-23T02:31:05;14.08;83.16
65058;HTU21D;51644;51.068;5.860;2022-10-23T02:32:09;14.08;83.14
65058;HTU21D;51644;51.068;5.860;2022-10-23T02:33:11;14.08;83.16
65058;HTU21D;51644;51.068;5.860;2022-10-23T02:34:10;14.08;83.19
65058;HTU21D;51644;51.068;5.860;2022-10-23T02:35:10;14.09;83.17
65058;HTU21D;51644;51.068;5.860;2022-10-23T02:36:09;14.11;83.15
65058;HTU21D;51644;51.068;5.860;2022-10-23T02:37:07;14.10;83.18
65058;HTU21D;51644;51.068;5.860;2022-10-23T02:38:28;14.10;83.18
65058;HTU21D;51644;51.068;5.860;2022-10-23T02:39:28;14.11;83.18
65058;HTU21D;51644;51.068;5.860;2022-10-23T02:40:39;14.11;83.20
65058;HTU21D;51644;51.068;5.860;2022-10-23T02:41:49;14.11;83.23
65058;HTU21D;51644;51.068;5.860;2022-10-23T02:42:57;14.10;83.23
65058;HTU21D;51644;51.068;5.860;2022-10-23T02:45:04;14.13;83.17
65058;HTU21D;51644;51.068;5.860;2022-10-23T02:47:42;14.13;83.10
65058;HTU21D;51644;51.068;5.860;2022-10-23T02:49:12;14.15;82.99
65058;HTU21D;51644;51.068;5.860;2022-10-23T02:50:32;14.18;82.92
65058;HTU21D;51644;51.068;5.860;2022-10-23T02:57:05;14.24;82.55
65058;HTU21D;51644;51.068;5.860;2022-10-23T02:58:19;14.23;82.58
65058;HTU21D;51644;51.068;5.860;2022-10-23T02:59:36;14.20;82.71
65058;HTU21D;51644;51.068;5.860;2022-10-23T03:00:43;14.17;82.83
65058;HTU21D;51644;51.068;5.860;2022-10-23T03:01:47;14.13;82.95
65058;HTU21D;51644;51.068;5.860;2022-10-23T03:02:58;14.12;83.11
65058;HTU21D;51644;51.068;5.860;2022-10-23T03:04:03;14.10;83.23
65058;HTU21D;51644;51.068;5.860;2022-10-23T03:05:07;14.10;83.25
65058;HTU21D;51644;51.068;5.860;2022-10-23T03:06:07;14.07;83.38
65058;HTU21D;51644;51.068;5.860;2022-10-23T03:07:12;14.06;83.53
65058;HTU21D;51644;51.068;5.860;2022-10-23T03:08:13;14.06;83.53
65058;HTU21D;51644;51.068;5.860;2022-10-23T03:09:12;14.06;83.55
65058;HTU21D;51644;51.068;5.860;2022-10-23T03:10:11;14.06;83.61
65058;HTU21D;51644;51.068;5.860;2022-10-23T03:11:10;14.06;83.68
65058;HTU21D;51644;51.068;5.860;2022-10-23T03:12:09;14.06;83.78
65058;HTU21D;51644;51.068;5.860;2022-10-23T03:13:09;14.06;83.77
65058;HTU21D;51644;51.068;5.860;2022-10-23T03:14:13;14.05;83.84
65058;HTU21D;51644;51.068;5.860;2022-10-23T03:15:12;14.05;83.92
65058;HTU21D;51644;51.068;5.860;2022-10-23T03:16:11;14.06;83.95
65058;HTU21D;51644;51.068;5.860;2022-10-23T03:17:09;14.06;83.99
65058;HTU21D;51644;51.068;5.860;2022-10-23T03:18:08;14.07;84.03
65058;HTU21D;51644;51.068;5.860;2022-10-23T03:19:07;14.07;84.03
65058;HTU21D;51644;51.068;5.860;2022-10-23T03:20:07;14.05;84.12
65058;HTU21D;51644;51.068;5.860;2022-10-23T03:21:07;14.05;84.13
65058;HTU21D;51644;51.068;5.860;2022-10-23T03:22:06;14.05;84.19
65058;HTU21D;51644;51.068;5.860;2022-10-23T03:23:05;14.05;84.26
65058;HTU21D;51644;51.068;5.860;2022-10-23T03:24:04;14.05;84.26
65058;HTU21D;51644;51.068;5.860;2022-10-23T03:25:09;14.06;84.26
65058;HTU21D;51644;51.068;5.860;2022-10-23T03:26:08;14.05;84.26
65058;HTU21D;51644;51.068;5.860;2022-10-23T03:27:13;14.06;84.28
65058;HTU21D;51644;51.068;5.860;2022-10-23T03:28:13;14.07;84.26
65058;HTU21D;51644;51.068;5.860;2022-10-23T03:29:12;14.07;84.24
65058;HTU21D;51644;51.068;5.860;2022-10-23T03:30:17;14.09;84.19
65058;HTU21D;51644;51.068;5.860;2022-10-23T03:31:19;14.10;84.16
65058;HTU21D;51644;51.068;5.860;2022-10-23T03:32:20;14.10;84.12
65058;HTU21D;51644;51.068;5.860;2022-10-23T03:33:19;14.11;84.08
65058;HTU21D;51644;51.068;5.860;2022-10-23T03:34:17;14.14;83.99
65058;HTU21D;51644;51.068;5.860;2022-10-23T03:35:16;14.13;83.94
65058;HTU21D;51644;51.068;5.860;2022-10-23T03:36:15;14.14;83.90
65058;HTU21D;51644;51.068;5.860;2022-10-23T03:37:16;14.13;83.88
65058;HTU21D;51644;51.068;5.860;2022-10-23T03:38:15;14.14;83.90
65058;HTU21D;51644;51.068;5.860;2022-10-23T03:39:13;14.14;83.87
65058;HTU21D;51644;51.068;5.860;2022-10-23T03:40:14;14.15;83.87
65058;HTU21D;51644;51.068;5.860;2022-10-23T03:41:12;14.17;83.81
65058;HTU21D;51644;51.068;5.860;2022-10-23T03:42:11;14.18;83.76
65058;HTU21D;51644;51.068;5.860;2022-10-23T03:43:10;14.19;83.73
65058;HTU21D;51644;51.068;5.860;2022-10-23T03:44:10;14.19;83.77
65058;HTU21D;51644;51.068;5.860;2022-10-23T03:45:15;14.20;83.80
65058;HTU21D;51644;51.068;5.860;2022-10-23T03:46:14;14.22;83.78
65058;HTU21D;51644;51.068;5.860;2022-10-23T03:47:13;14.22;83.74
65058;HTU21D;51644;51.068;5.860;2022-10-23T03:48:13;14.23;83.69
65058;HTU21D;51644;51.068;5.860;2022-10-23T03:49:12;14.24;83.68
65058;HTU21D;51644;51.068;5.860;2022-10-23T03:50:14;14.24;83.71
65058;HTU21D;51644;51.068;5.860;2022-10-23T03:51:13;14.25;83.74
65058;HTU21D;51644;51.068;5.860;2022-10-23T03:52:12;14.25;83.75
65058;HTU21D;51644;51.068;5.860;2022-10-23T03:53:11;14.24;83.78
65058;HTU21D;51644;51.068;5.860;2022-10-23T03:54:09;14.23;83.80
65058;HTU21D;51644;51.068;5.860;2022-10-23T03:55:09;14.26;83.78
65058;HTU21D;51644;51.068;5.860;2022-10-23T03:56:08;14.26;83.74
65058;HTU21D;51644;51.068;5.860;2022-10-23T03:57:07;14.26;83.68
65058;HTU21D;51644;51.068;5.860;2022-10-23T03:58:05;14.26;83.68
65058;HTU21D;51644;51.068;5.860;2022-10-23T03:59:04;14.27;83.69
65058;HTU21D;51644;51.068;5.860;2022-10-23T04:00:05;14.28;83.65
65058;HTU21D;51644;51.068;5.860;2022-10-23T04:01:14;14.28;83.65
65058;HTU21D;51644;51.068;5.860;2022-10-23T04:02:13;14.29;83.68
65058;HTU21D;51644;51.068;5.860;2022-10-23T04:03:12;14.29;83.71
65058;HTU21D;51644;51.068;5.860;2022-10-23T04:04:11;14.30;83.73
65058;HTU21D;51644;51.068;5.860;2022-10-23T04:05:13;14.30;83.71
65058;HTU21D;51644;51.068;5.860;2022-10-23T04:06:19;14.33;83.71
65058;HTU21D;51644;51.068;5.860;2022-10-23T04:07:17;14.30;83.68
65058;HTU21D;51644;51.068;5.860;2022-10-23T04:08:17;14.30;83.72
65058;HTU21D;51644;51.068;5.860;2022-10-23T04:09:15;14.29;83.84
65058;HTU21D;51644;51.068;5.860;2022-10-23T04:10:14;14.29;83.90
65058;HTU21D;51644;51.068;5.860;2022-10-23T04:11:13;14.30;83.86
65058;HTU21D;51644;51.068;5.860;2022-10-23T04:12:17;14.28;83.98
65058;HTU21D;51644;51.068;5.860;2022-10-23T04:13:16;14.28;84.05
65058;HTU21D;51644;51.068;5.860;2022-10-23T04:14:14;14.27;84.12
65058;HTU21D;51644;51.068;5.860;2022-10-23T04:15:13;14.26;84.21
65058;HTU21D;51644;51.068;5.860;2022-10-23T04:16:15;14.26;84.25
65058;HTU21D;51644;51.068;5.860;2022-10-23T04:17:15;14.23;84.32
65058;HTU21D;51644;51.068;5.860;2022-10-23T04:18:14;14.24;84.38
65058;HTU21D;51644;51.068;5.860;2022-10-23T04:19:13;14.23;84.52
65058;HTU21D;51644;51.068;5.860;2022-10-23T04:20:14;14.21;84.58
65058;HTU21D;51644;51.068;5.860;2022-10-23T04:21:13;14.21;84.66
65058;HTU21D;51644;51.068;5.860;2022-10-23T04:22:11;14.22;84.71
65058;HTU21D;51644;51.068;5.860;2022-10-23T04:23:11;14.21;84.74
65058;HTU21D;51644;51.068;5.860;2022-10-23T04:24:12;14.20;84.74
65058;HTU21D;51644;51.068;5.860;2022-10-23T04:25:11;14.20;84.80
65058;HTU21D;51644;51.068;5.860;2022-10-23T04:26:10;14.20;84.86
65058;HTU21D;51644;51.068;5.860;2022-10-23T04:27:08;14.19;84.86
65058;HTU21D;51644;51.068;5.860;2022-10-23T04:28:07;14.20;84.88
65058;HTU21D;51644;51.068;5.860;2022-10-23T04:29:09;14.21;84.84
65058;HTU21D;51644;51.068;5.860;2022-10-23T04:30:08;14.20;84.85
65058;HTU21D;51644;51.068;5.860;2022-10-23T04:31:07;14.19;84.90
65058;HTU21D;51644;51.068;5.860;2022-10-23T04:32:06;14.21;84.90
65058;HTU21D;51644;51.068;5.860;2022-10-23T04:33:05;14.20;84.97
65058;HTU21D;51644;51.068;5.860;2022-10-23T04:34:07;14.21;85.02
65058;HTU21D;51644;51.068;5.860;2022-10-23T04:35:08;14.21;85.03
65058;HTU21D;51644;51.068;5.860;2022-10-23T04:36:07;14.21;85.02
65058;HTU21D;51644;51.068;5.860;2022-10-23T04:37:05;14.21;85.04
65058;HTU21D;51644;51.068;5.860;2022-10-23T04:38:04;14.19;85.13
65058;HTU21D;51644;51.068;5.860;2022-10-23T04:39:03;14.19;85.19
65058;HTU21D;51644;51.068;5.860;2022-10-23T04:40:02;14.19;85.21
65058;HTU21D;51644;51.068;5.860;2022-10-23T04:41:00;14.20;85.23
65058;HTU21D;51644;51.068;5.860;2022-10-23T04:42:00;14.21;85.22
65058;HTU21D;51644;51.068;5.860;2022-10-23T04:42:59;14.21;85.25
65058;HTU21D;51644;51.068;5.860;2022-10-23T04:43:58;14.21;85.29
65058;HTU21D;51644;51.068;5.860;2022-10-23T04:44:56;14.20;85.29
65058;HTU21D;51644;51.068;5.860;2022-10-23T04:45:55;14.20;85.29
65058;HTU21D;51644;51.068;5.860;2022-10-23T04:46:54;14.23;85.29
65058;HTU21D;51644;51.068;5.860;2022-10-23T04:47:54;14.22;85.26
65058;HTU21D;51644;51.068;5.860;2022-10-23T04:48:54;14.23;85.23
65058;HTU21D;51644;51.068;5.860;2022-10-23T04:49:59;14.22;85.23
65058;HTU21D;51644;51.068;5.860;2022-10-23T04:51:26;14.22;85.22
65058;HTU21D;51644;51.068;5.860;2022-10-23T04:52:29;14.23;85.31
65058;HTU21D;51644;51.068;5.860;2022-10-23T04:53:51;14.23;85.36
65058;HTU21D;51644;51.068;5.860;2022-10-23T04:54:59;14.23;85.42
65058;HTU21D;51644;51.068;5.860;2022-10-23T04:56:02;14.22;85.48
65058;HTU21D;51644;51.068;5.860;2022-10-23T04:57:08;14.20;85.56
65058;HTU21D;51644;51.068;5.860;2022-10-23T04:58:27;14.19;85.66
65058;HTU21D;51644;51.068;5.860;2022-10-23T04:59:28;14.18;85.75
65058;HTU21D;51644;51.068;5.860;2022-10-23T05:00:27;14.15;85.75
65058;HTU21D;51644;51.068;5.860;2022-10-23T05:01:28;14.14;85.80
65058;HTU21D;51644;51.068;5.860;2022-10-23T05:02:27;14.13;85.84
65058;HTU21D;51644;51.068;5.860;2022-10-23T05:03:26;14.12;85.90
65058;HTU21D;51644;51.068;5.860;2022-10-23T05:04:26;14.10;86.03
65058;HTU21D;51644;51.068;5.860;2022-10-23T05:05:43;14.11;86.11
65058;HTU21D;51644;51.068;5.860;2022-10-23T05:07:11;14.12;86.20
65058;HTU21D;51644;51.068;5.860;2022-10-23T05:08:36;14.10;86.28
65058;HTU21D;51644;51.068;5.860;2022-10-23T05:10:05;14.10;86.32
65058;HTU21D;51644;51.068;5.860;2022-10-23T05:11:16;14.10;86.36
65058;HTU21D;51644;51.068;5.860;2022-10-23T05:12:18;14.10;86.37
65058;HTU21D;51644;51.068;5.860;2022-10-23T05:13:19;14.08;86.40
65058;HTU21D;51644;51.068;5.860;2022-10-23T05:14:17;14.08;86.41
65058;HTU21D;51644;51.068;5.860;2022-10-23T05:15:16;14.09;86.45
65058;HTU21D;51644;51.068;5.860;2022-10-23T05:17:34;14.09;86.51
65058;HTU21D;51644;51.068;5.860;2022-10-23T05:18:39;14.09;86.51
65058;HTU21D;51644;51.068;5.860;2022-10-23T05:19:46;14.08;86.61
65058;HTU21D;51644;51.068;5.860;2022-10-23T05:20:50;14.07;86.68
65058;HTU21D;51644;51.068;5.860;2022-10-23T05:21:51;14.07;86.71
65058;HTU21D;51644;51.068;5.860;2022-10-23T05:22:58;14.05;86.74
65058;HTU21D;51644;51.068;5.860;2022-10-23T05:23:57;14.06;86.78
65058;HTU21D;51644;51.068;5.860;2022-10-23T05:24:57;14.05;86.81
65058;HTU21D;51644;51.068;5.860;2022-10-23T05:25:58;14.05;86.81
65058;HTU21D;51644;51.068;5.860;2022-10-23T05:26:57;14.06;86.86
65058;HTU21D;51644;51.068;5.860;2022-10-23T05:27:56;14.05;86.88
65058;HTU21D;51644;51.068;5.860;2022-10-23T05:28:54;14.05;86.89
65058;HTU21D;51644;51.068;5.860;2022-10-23T05:29:53;14.06;86.91
65058;HTU21D;51644;51.068;5.860;2022-10-23T05:30:59;14.04;86.93
65058;HTU21D;51644;51.068;5.860;2022-10-23T05:32:03;14.05;86.95
65058;HTU21D;51644;51.068;5.860;2022-10-23T05:33:04;14.04;86.93
65058;HTU21D;51644;51.068;5.860;2022-10-23T05:34:10;14.04;86.97
65058;HTU21D;51644;51.068;5.860;2022-10-23T05:35:18;14.05;86.99
65058;HTU21D;51644;51.068;5.860;2022-10-23T05:36:22;14.05;86.98
65058;HTU21D;51644;51.068;5.860;2022-10-23T05:37:27;14.05;86.93
65058;HTU21D;51644;51.068;5.860;2022-10-23T05:38:35;14.05;86.94
65058;HTU21D;51644;51.068;5.860;2022-10-23T05:39:42;14.05;86.93
65058;HTU21D;51644;51.068;5.860;2022-10-23T05:40:44;14.08;86.90
65058;HTU21D;51644;51.068;5.860;2022-10-23T05:41:48;14.09;86.86
65058;HTU21D;51644;51.068;5.860;2022-10-23T05:42:52;14.09;86.85
65058;HTU21D;51644;51.068;5.860;2022-10-23T05:43:58;14.10;86.80
65058;HTU21D;51644;51.068;5.860;2022-10-23T05:45:23;14.11;86.72
65058;HTU21D;51644;51.068;5.860;2022-10-23T05:46:42;14.13;86.68
65058;HTU21D;51644;51.068;5.860;2022-10-23T05:47:51;14.15;86.65
65058;HTU21D;51644;51.068;5.860;2022-10-23T05:49:14;14.15;86.56
65058;HTU21D;51644;51.068;5.860;2022-10-23T05:50:38;14.15;86.48
65058;HTU21D;51644;51.068;5.860;2022-10-23T05:51:50;14.17;86.37
65058;HTU21D;51644;51.068;5.860;2022-10-23T05:53:14;14.17;86.28
65058;HTU21D;51644;51.068;5.860;2022-10-23T05:54:32;14.18;86.17
65058;HTU21D;51644;51.068;5.860;2022-10-23T05:55:41;14.19;86.13
65058;HTU21D;51644;51.068;5.860;2022-10-23T05:56:58;14.18;86.03
65058;HTU21D;51644;51.068;5.860;2022-10-23T05:58:10;14.15;86.00
65058;HTU21D;51644;51.068;5.860;2022-10-23T05:59:35;14.15;85.96
65058;HTU21D;51644;51.068;5.860;2022-10-23T06:00:54;14.14;85.97
65058;HTU21D;51644;51.068;5.860;2022-10-23T06:02:12;14.13;86.00
65058;HTU21D;51644;51.068;5.860;2022-10-23T06:03:22;14.13;86.01
65058;HTU21D;51644;51.068;5.860;2022-10-23T06:04:20;14.12;86.01
65058;HTU21D;51644;51.068;5.860;2022-10-23T06:05:48;14.12;86.06
65058;HTU21D;51644;51.068;5.860;2022-10-23T06:06:58;14.13;86.09
65058;HTU21D;51644;51.068;5.860;2022-10-23T06:07:59;14.13;86.12
65058;HTU21D;51644;51.068;5.860;2022-10-23T06:08:58;14.14;86.11
65058;HTU21D;51644;51.068;5.860;2022-10-23T06:09:57;14.15;86.07
65058;HTU21D;51644;51.068;5.860;2022-10-23T06:10:56;14.18;85.96
65058;HTU21D;51644;51.068;5.860;2022-10-23T06:11:54;14.17;86.00
65058;HTU21D;51644;51.068;5.860;2022-10-23T06:12:54;14.17;86.00
65058;HTU21D;51644;51.068;5.860;2022-10-23T06:13:53;14.19;85.97
65058;HTU21D;51644;51.068;5.860;2022-10-23T06:14:52;14.19;85.95
65058;HTU21D;51644;51.068;5.860;2022-10-23T06:15:53;14.20;85.92
65058;HTU21D;51644;51.068;5.860;2022-10-23T06:16:54;14.20;85.92
65058;HTU21D;51644;51.068;5.860;2022-10-23T06:17:53;14.22;85.90
65058;HTU21D;51644;51.068;5.860;2022-10-23T06:18:53;14.23;85.90
65058;HTU21D;51644;51.068;5.860;2022-10-23T06:19:51;14.24;85.88
65058;HTU21D;51644;51.068;5.860;2022-10-23T06:20:50;14.24;85.89
65058;HTU21D;51644;51.068;5.860;2022-10-23T06:21:56;14.27;85.87
65058;HTU21D;51644;51.068;5.860;2022-10-23T06:23:06;14.28;85.84
65058;HTU21D;51644;51.068;5.860;2022-10-23T06:24:31;14.30;85.78
65058;HTU21D;51644;51.068;5.860;2022-10-23T06:25:34;14.33;85.74
65058;HTU21D;51644;51.068;5.860;2022-10-23T06:26:36;14.33;85.68
65058;HTU21D;51644;51.068;5.860;2022-10-23T06:27:46;14.35;85.68
65058;HTU21D;51644;51.068;5.860;2022-10-23T06:28:45;14.36;85.66
65058;HTU21D;51644;51.068;5.860;2022-10-23T06:29:44;14.37;85.67
65058;HTU21D;51644;51.068;5.860;2022-10-23T06:30:43;14.37;85.67
65058;HTU21D;51644;51.068;5.860;2022-10-23T06:31:41;14.39;85.66
65058;HTU21D;51644;51.068;5.860;2022-10-23T06:32:40;14.39;85.68
65058;HTU21D;51644;51.068;5.860;2022-10-23T06:33:43;14.42;85.71
65058;HTU21D;51644;51.068;5.860;2022-10-23T06:34:43;14.44;85.70
65058;HTU21D;51644;51.068;5.860;2022-10-23T06:35:41;14.48;85.66
65058;HTU21D;51644;51.068;5.860;2022-10-23T06:36:40;14.50;85.66
65058;HTU21D;51644;51.068;5.860;2022-10-23T06:37:54;14.53;85.61
65058;HTU21D;51644;51.068;5.860;2022-10-23T06:39:05;14.55;85.56
65058;HTU21D;51644;51.068;5.860;2022-10-23T06:40:36;14.59;85.48
65058;HTU21D;51644;51.068;5.860;2022-10-23T06:41:37;14.63;85.43
65058;HTU21D;51644;51.068;5.860;2022-10-23T06:42:39;14.64;85.37
65058;HTU21D;51644;51.068;5.860;2022-10-23T06:44:07;14.67;85.28
65058;HTU21D;51644;51.068;5.860;2022-10-23T06:45:14;14.68;85.19
65058;HTU21D;51644;51.068;5.860;2022-10-23T06:46:50;14.72;85.08
65058;HTU21D;51644;51.068;5.860;2022-10-23T06:48:24;14.74;84.97
65058;HTU21D;51644;51.068;5.860;2022-10-23T06:49:35;14.75;84.90
65058;HTU21D;51644;51.068;5.860;2022-10-23T06:50:36;14.78;84.81
65058;HTU21D;51644;51.068;5.860;2022-10-23T06:51:38;14.79;84.81
65058;HTU21D;51644;51.068;5.860;2022-10-23T06:52:42;14.81;84.75
65058;HTU21D;51644;51.068;5.860;2022-10-23T06:53:40;14.83;84.68
65058;HTU21D;51644;51.068;5.860;2022-10-23T06:54:59;14.82;84.74
65058;HTU21D;51644;51.068;5.860;2022-10-23T06:56:06;14.83;84.64
65058;HTU21D;51644;51.068;5.860;2022-10-23T06:57:06;14.86;84.63
65058;HTU21D;51644;51.068;5.860;2022-10-23T06:58:14;14.86;84.63
65058;HTU21D;51644;51.068;5.860;2022-10-23T06:59:39;14.92;84.56
65058;HTU21D;51644;51.068;5.860;2022-10-23T07:00:39;14.92;84.48
65058;HTU21D;51644;51.068;5.860;2022-10-23T07:01:38;14.94;84.43
65058;HTU21D;51644;51.068;5.860;2022-10-23T07:02:38;14.95;84.42
65058;HTU21D;51644;51.068;5.860;2022-10-23T07:03:36;14.97;84.36
65058;HTU21D;51644;51.068;5.860;2022-10-23T07:04:38;15.00;84.29
65058;HTU21D;51644;51.068;5.860;2022-10-23T07:05:43;15.02;84.21
65058;HTU21D;51644;51.068;5.860;2022-10-23T07:06:44;15.06;84.11
65058;HTU21D;51644;51.068;5.860;2022-10-23T07:07:43;15.08;84.04